Time;durP1;ratioP1;P1;durP2;ratioP2;P2;SDS_P1;SDS_P2;PMS_P1;PMS_P2;Temp;Humidity;BMP_temperature;BMP_pressure;BME280_temperature;BME280_humidity;BME280_pressure;Samples;Min_cycle;Max_cycle;Signal;HPM_P1;HPM_P2
2024/04/15 00:00:16;;;;;;;11.13;6.28;;;19.90;84.80;;;;;;5452523;26;20089;-72
2024/04/15 00:02:42;;;;;;;15.82;6.88;;;19.90;84.90;;;;;;5454292;26;20009;-72
2024/04/15 00:05:08;;;;;;;12.90;6.60;;;19.80;84.90;;;;;;5453916;26;20303;-72
2024/04/15 00:07:34;;;;;;;11.23;6.75;;;19.80;85.10;;;;;;5452639;26;19991;-72
2024/04/15 00:21:21;;;;;;;14.05;6.97;;;19.50;85.90;;;;;;5176121;27;20019;-72
2024/04/15 00:24:44;;;;;;;11.38;6.75;;;19.50;86.20;;;;;;5079861;28;20473;-72
2024/04/15 00:31:06;;;;;;;12.05;6.45;;;19.40;85.90;;;;;;5122471;27;20018;-72
2024/04/15 00:36:57;;;;;;;10.57;5.60;;;19.20;86.30;;;;;;5132996;27;19997;-72
2024/04/15 00:39:25;;;;;;;11.50;5.78;;;19.20;86.10;;;;;;5266133;26;20338;-72
2024/04/15 00:41:51;;;;;;;7.93;5.57;;;19.30;85.70;;;;;;5452784;26;20367;-72
2024/04/15 00:44:17;;;;;;;11.48;5.93;;;19.30;85.40;;;;;;5452723;26;20307;-72
2024/04/15 00:46:43;;;;;;;12.82;6.15;;;19.20;85.50;;;;;;5452929;26;20007;-72
2024/04/15 00:49:12;;;;;;;14.07;6.07;;;19.20;85.40;;;;;;5453246;26;19998;-72
2024/04/15 00:51:41;;;;;;;7.53;5.20;;;19.10;85.10;;;;;;5452599;26;20549;-72
2024/04/15 00:54:09;;;;;;;9.82;5.47;;;19.10;84.80;;;;;;5452778;26;20009;-72
2024/04/15 00:56:35;;;;;;;10.88;5.22;;;19.00;84.80;;;;;;5452239;26;20002;-72
2024/04/15 00:59:01;;;;;;;11.63;5.43;;;18.90;85.00;;;;;;5449201;26;20006;-72
2024/04/15 01:01:27;;;;;;;11.45;5.45;;;18.90;85.20;;;;;;5449042;26;20003;-72
2024/04/15 01:03:55;;;;;;;11.85;5.78;;;18.90;85.10;;;;;;5449456;26;20435;-72
2024/04/15 01:06:21;;;;;;;11.45;5.15;;;18.90;85.10;;;;;;5452642;26;20012;-72
2024/04/15 01:08:46;;;;;;;11.25;4.70;;;19.00;84.80;;;;;;5451119;26;19998;-72
2024/04/15 01:11:13;;;;;;;10.82;5.47;;;19.00;84.40;;;;;;5452906;26;19999;-72
2024/04/15 01:13:40;;;;;;;9.30;4.45;;;18.90;84.10;;;;;;5452256;26;20722;-72
2024/04/15 01:16:06;;;;;;;7.22;4.18;;;19.00;84.20;;;;;;5451303;26;20040;-72
2024/04/15 01:18:31;;;;;;;11.63;4.60;;;18.90;83.80;;;;;;5452253;26;19999;-73
2024/04/15 01:20:58;;;;;;;8.25;4.90;;;18.80;83.40;;;;;;5450361;26;19999;-72
2024/04/15 01:23:28;;;;;;;9.20;4.65;;;18.80;83.80;;;;;;5452267;26;20003;-72
2024/04/15 01:25:54;;;;;;;8.57;4.10;;;18.80;83.70;;;;;;5452103;26;19995;-72
2024/04/15 01:28:20;;;;;;;7.00;4.38;;;18.70;83.40;;;;;;5452592;26;20013;-72
2024/04/15 01:30:46;;;;;;;12.38;5.40;;;18.60;84.10;;;;;;5452237;26;20015;-72
2024/04/15 01:33:12;;;;;;;6.95;4.13;;;18.70;83.30;;;;;;5452193;26;20002;-72
2024/04/15 01:35:38;;;;;;;12.90;4.00;;;18.70;83.00;;;;;;5451859;26;20003;-72
2024/04/15 01:38:04;;;;;;;5.55;3.60;;;18.70;82.90;;;;;;5451808;26;20072;-72
2024/04/15 01:40:30;;;;;;;9.27;4.28;;;18.70;82.60;;;;;;5452560;26;20009;-72
2024/04/15 01:42:56;;;;;;;7.80;4.05;;;18.70;82.60;;;;;;5452581;26;20442;-72
2024/04/15 01:45:22;;;;;;;6.53;4.20;;;18.60;82.90;;;;;;5452544;26;20343;-72
2024/04/15 01:48:19;;;;;;;6.93;3.92;;;18.60;83.00;;;;;;5452838;26;20391;-72
2024/04/15 01:55:16;;;;;;;;;;;;;;;;;;;;;
2024/04/15 01:58:37;;;;;;;8.30;4.05;;;18.60;83.10;;;;;;5274397;27;20135;-72
2024/04/15 02:04:55;;;;;;;7.68;3.55;;;18.60;83.20;;;;;;5269950;27;20360;-72
2024/04/15 02:07:21;;;;;;;8.10;4.00;;;18.50;83.10;;;;;;5273599;27;20053;-72
2024/04/15 02:10:27;;;;;;;9.80;4.20;;;18.40;82.80;;;;;;5353121;26;20008;-72
2024/04/15 02:12:56;;;;;;;6.65;4.03;;;18.40;83.20;;;;;;5377208;26;20000;-72
2024/04/15 02:15:22;;;;;;;8.00;3.75;;;18.30;83.50;;;;;;5377024;26;20360;-72
2024/04/15 02:17:48;;;;;;;7.18;4.05;;;18.40;83.60;;;;;;5387451;26;20008;-72
2024/04/15 02:20:14;;;;;;;5.60;3.60;;;18.30;83.60;;;;;;5451811;26;20006;-72
2024/04/15 02:22:40;;;;;;;7.75;3.70;;;18.30;83.40;;;;;;5451435;26;20048;-73
2024/04/15 02:25:06;;;;;;;6.05;4.30;;;18.30;83.30;;;;;;5451881;26;19999;-72
2024/04/15 02:27:35;;;;;;;5.88;3.70;;;18.30;82.90;;;;;;5451470;26;19995;-72
2024/04/15 02:30:02;;;;;;;6.88;4.07;;;18.20;82.40;;;;;;5449787;26;20324;-72
2024/04/15 02:32:28;;;;;;;7.25;3.80;;;18.20;82.70;;;;;;5450707;26;20026;-72
2024/04/15 02:34:54;;;;;;;7.82;3.85;;;18.20;82.70;;;;;;5451215;26;19991;-73
2024/04/15 02:37:19;;;;;;;7.80;3.92;;;18.30;82.90;;;;;;5449949;26;20003;-72
2024/04/15 02:39:46;;;;;;;6.55;4.50;;;18.20;82.90;;;;;;5451495;26;19994;-72
2024/04/15 02:42:12;;;;;;;10.65;4.43;;;18.30;82.80;;;;;;5449115;26;19999;-72
2024/04/15 02:44:37;;;;;;;14.23;4.93;;;18.30;82.90;;;;;;5450641;26;20002;-72
2024/04/15 02:47:03;;;;;;;12.82;5.20;;;18.20;83.20;;;;;;5451011;26;20007;-72
2024/04/15 02:49:29;;;;;;;9.98;4.97;;;18.20;83.40;;;;;;5451111;26;20439;-72
2024/04/15 02:51:57;;;;;;;6.70;4.80;;;18.20;83.50;;;;;;5451326;26;20006;-73
2024/04/15 02:54:22;;;;;;;14.60;5.25;;;18.20;83.50;;;;;;5450718;26;20018;-74
2024/04/15 02:56:48;;;;;;;7.72;4.97;;;18.20;83.60;;;;;;5450867;26;20011;-74
2024/04/15 02:59:14;;;;;;;12.40;4.82;;;18.10;83.90;;;;;;5454660;26;19991;-74
2024/04/15 03:01:40;;;;;;;12.80;5.53;;;18.10;84.00;;;;;;5454160;26;19994;-73
2024/04/15 03:04:05;;;;;;;12.07;5.35;;;18.10;84.20;;;;;;5454522;26;20006;-73
2024/04/15 03:06:31;;;;;;;10.52;5.05;;;18.10;84.30;;;;;;5453371;26;20068;-73
2024/04/15 03:08:57;;;;;;;11.02;5.32;;;18.00;84.40;;;;;;5454426;26;20377;-73
2024/04/15 03:11:22;;;;;;;9.73;5.28;;;18.00;84.40;;;;;;5454664;26;20005;-73
2024/04/15 03:13:48;;;;;;;8.13;4.88;;;17.90;84.50;;;;;;5455049;26;20010;-72
2024/04/15 03:16:14;;;;;;;9.73;4.97;;;17.90;84.80;;;;;;5454611;26;20006;-72
2024/04/15 03:18:40;;;;;;;11.00;5.25;;;17.90;84.90;;;;;;5455318;26;19995;-72
2024/04/15 03:21:08;;;;;;;12.95;4.47;;;17.90;85.00;;;;;;5455148;26;19995;-72
2024/04/15 03:23:34;;;;;;;8.82;5.10;;;17.90;85.00;;;;;;5479577;26;20059;-72
2024/04/15 03:30:01;;;;;;;11.43;6.00;;;17.90;85.30;;;;;;5490844;26;20459;-72
2024/04/15 03:43:51;;;;;;;;;;;;;;;;;;;;;
2024/04/15 03:47:10;;;;;;;13.60;5.70;;;17.60;85.40;;;;;;5175815;27;20000;-72
2024/04/15 03:50:31;;;;;;;10.13;5.28;;;17.60;85.60;;;;;;5176221;27;20001;-72
2024/04/15 03:52:58;;;;;;;9.05;5.22;;;17.50;85.40;;;;;;5230999;27;20359;-72
2024/04/15 03:55:24;;;;;;;9.02;5.43;;;17.50;85.60;;;;;;5309211;26;20416;-72
2024/04/15 03:57:50;;;;;;;12.07;5.57;;;17.40;85.50;;;;;;5463950;26;20312;-72
2024/04/15 04:00:16;;;;;;;13.75;5.78;;;17.40;85.60;;;;;;5487982;26;20009;-72
2024/04/15 04:02:42;;;;;;;12.85;5.30;;;17.40;85.70;;;;;;5490135;26;19993;-72
2024/04/15 04:05:08;;;;;;;9.98;5.05;;;17.30;86.00;;;;;;5490210;26;20006;-72
2024/04/15 04:07:34;;;;;;;9.63;5.57;;;17.30;86.10;;;;;;5489038;26;19994;-72
2024/04/15 04:09:59;;;;;;;14.07;5.65;;;17.20;86.20;;;;;;5489546;26;20013;-72
2024/04/15 04:12:25;;;;;;;11.15;5.53;;;17.20;86.40;;;;;;5490487;26;20005;-72
2024/04/15 04:14:51;;;;;;;10.38;5.10;;;17.20;86.40;;;;;;5489884;26;20038;-72
2024/04/15 04:17:16;;;;;;;11.02;5.55;;;17.20;86.30;;;;;;5489898;26;20074;-72
2024/04/15 04:19:42;;;;;;;11.18;5.57;;;17.20;87.10;;;;;;5489946;26;20009;-72
2024/04/15 04:22:08;;;;;;;15.70;5.70;;;17.20;86.80;;;;;;5489797;26;20009;-71
2024/04/15 04:24:34;;;;;;;10.73;5.30;;;17.10;86.80;;;;;;5489456;26;20072;-72
2024/04/15 04:26:59;;;;;;;10.65;5.60;;;17.00;86.90;;;;;;5489725;26;19997;-73
2024/04/15 04:29:25;;;;;;;10.85;5.43;;;16.90;87.00;;;;;;5489775;26;20046;-72
2024/04/15 04:31:51;;;;;;;14.57;6.05;;;16.90;87.30;;;;;;5489794;26;19994;-72
2024/04/15 04:34:17;;;;;;;21.35;6.05;;;16.90;87.60;;;;;;5489719;26;20033;-72
2024/04/15 04:36:42;;;;;;;33.50;5.80;;;16.90;87.80;;;;;;5489830;26;20009;-72
2024/04/15 04:39:10;;;;;;;34.55;6.07;;;16.90;87.80;;;;;;5487520;26;19994;-72
2024/04/15 04:41:35;;;;;;;22.27;5.35;;;17.00;88.00;;;;;;5488899;26;20403;-71
2024/04/15 04:44:01;;;;;;;23.63;5.32;;;16.90;87.30;;;;;;5489083;26;20013;-72
2024/04/15 04:46:27;;;;;;;20.02;6.03;;;16.90;87.50;;;;;;5489177;26;20076;-72
2024/04/15 04:48:52;;;;;;;28.35;6.03;;;16.90;88.00;;;;;;5488959;26;20400;-72
2024/04/15 04:51:18;;;;;;;16.05;5.53;;;16.90;88.30;;;;;;5488738;26;19990;-72
2024/04/15 04:53:45;;;;;;;20.02;5.85;;;16.90;88.10;;;;;;5488776;26;20074;-72
2024/04/15 04:56:11;;;;;;;22.10;6.05;;;16.90;87.80;;;;;;5488348;26;20006;-72
2024/04/15 04:58:38;;;;;;;9.95;5.50;;;16.90;87.60;;;;;;5490006;26;19990;-72
2024/04/15 05:01:10;;;;;;;13.35;5.30;;;16.80;87.70;;;;;;5490338;26;20403;-72
2024/04/15 05:03:47;;;;;;;17.35;6.03;;;16.70;87.60;;;;;;5490071;26;20350;-72
2024/04/15 05:06:19;;;;;;;16.83;5.78;;;16.70;88.00;;;;;;5477910;26;19999;-71
2024/04/15 05:09:31;;;;;;;18.80;6.28;;;16.80;88.10;;;;;;5453032;26;19999;-72
2024/04/15 05:22:59;;;;;;;24.38;5.93;;;16.90;88.30;;;;;;5207365;27;20000;-72
2024/04/15 05:26:00;;;;;;;22.08;5.85;;;16.90;88.40;;;;;;5321023;26;20048;-72
2024/04/15 05:29:23;;;;;;;19.75;5.90;;;16.90;88.30;;;;;;5322031;26;19997;-73
2024/04/15 05:31:49;;;;;;;18.48;6.22;;;17.00;88.20;;;;;;5272210;26;19997;-72
2024/04/15 05:34:15;;;;;;;11.98;5.80;;;17.00;88.20;;;;;;5444448;26;20013;-72
2024/04/15 05:36:41;;;;;;;18.92;5.72;;;17.00;88.10;;;;;;5452107;26;20003;-72
2024/04/15 05:39:07;;;;;;;35.88;6.30;;;17.00;87.90;;;;;;5451169;26;20003;-71
2024/04/15 05:41:33;;;;;;;19.23;5.30;;;17.10;88.10;;;;;;5450465;26;20007;-72
2024/04/15 05:43:58;;;;;;;24.33;4.72;;;17.00;87.90;;;;;;5451959;26;20017;-72
2024/04/15 05:46:24;;;;;;;13.75;5.03;;;17.10;88.00;;;;;;5451804;26;20074;-72
2024/04/15 05:48:50;;;;;;;14.45;4.53;;;17.20;88.20;;;;;;5452153;26;20022;-72
2024/04/15 05:51:17;;;;;;;18.40;4.80;;;17.20;88.40;;;;;;5452578;26;20075;-71
2024/04/15 05:53:43;;;;;;;12.32;4.55;;;17.30;88.80;;;;;;5451883;26;20011;-71
2024/04/15 05:56:09;;;;;;;13.80;5.25;;;17.20;88.90;;;;;;5451830;26;19998;-72
2024/04/15 05:58:35;;;;;;;19.25;4.53;;;17.30;89.70;;;;;;5451340;26;19995;-72
2024/04/15 06:01:01;;;;;;;20.70;4.25;;;17.40;88.70;;;;;;5454932;21;20015;-73
2024/04/15 06:03:27;;;;;;;17.58;4.20;;;17.30;88.20;;;;;;5448979;26;20006;-72
2024/04/15 06:05:53;;;;;;;19.13;4.50;;;17.40;87.80;;;;;;5451051;26;20325;-72
2024/04/15 06:08:18;;;;;;;24.00;4.32;;;17.40;87.30;;;;;;5451704;26;19991;-72
2024/04/15 06:10:47;;;;;;;18.95;4.80;;;17.40;87.10;;;;;;5451928;26;20005;-73
2024/04/15 06:13:13;;;;;;;17.30;4.57;;;17.50;86.60;;;;;;5451863;26;20023;-72
2024/04/15 06:15:39;;;;;;;19.48;4.35;;;17.50;86.80;;;;;;5451367;26;19991;-73
2024/04/15 06:18:05;;;;;;;25.42;5.32;;;17.60;86.10;;;;;;5451315;26;19998;-73
2024/04/15 06:20:31;;;;;;;27.70;5.80;;;17.60;86.60;;;;;;5450945;26;20021;-72
2024/04/15 06:22:57;;;;;;;25.05;5.32;;;17.70;87.30;;;;;;5452171;26;20010;-70
2024/04/15 06:25:22;;;;;;;25.60;5.90;;;17.70;87.50;;;;;;5451505;26;20001;-71
2024/04/15 06:27:48;;;;;;;25.55;5.63;;;17.80;87.70;;;;;;5451167;26;20075;-70
2024/04/15 06:30:14;;;;;;;17.65;5.53;;;17.90;88.20;;;;;;5449044;26;19999;-70
2024/04/15 06:32:39;;;;;;;19.73;6.05;;;17.90;88.50;;;;;;5452377;26;19998;-70
2024/04/15 06:35:06;;;;;;;26.45;5.13;;;17.90;88.70;;;;;;5455581;26;19995;-71
2024/04/15 06:37:31;;;;;;;27.95;5.22;;;17.90;88.40;;;;;;5455491;26;20314;-70
2024/04/15 06:39:57;;;;;;;14.95;4.75;;;17.90;88.40;;;;;;5454813;26;20014;-70
2024/04/15 06:42:23;;;;;;;16.45;4.40;;;17.90;88.50;;;;;;5454766;26;19995;-70
2024/04/15 06:44:49;;;;;;;19.58;5.05;;;18.00;88.50;;;;;;5453488;26;20007;-70
2024/04/15 06:47:15;;;;;;;9.98;4.22;;;18.10;88.40;;;;;;5453679;26;20076;-70
2024/04/15 06:49:41;;;;;;;9.73;3.40;;;18.00;88.10;;;;;;5454393;26;20388;-70
2024/04/15 06:52:06;;;;;;;15.50;4.10;;;18.10;87.80;;;;;;5455773;26;19995;-69
2024/04/15 06:54:32;;;;;;;12.02;4.10;;;18.20;87.90;;;;;;5455123;26;20319;-69
